sensor_id;sensor_type;location;lat;lon;timestamp;P1;durP1;ratioP1;P2;durP2;ratioP2
32611;SDS011;19030;49.478;8.986;2023-08-06T00:00:13;14.68;;;13.40;;
32611;SDS011;19030;49.478;8.986;2023-08-06T00:02:15;15.57;;;14.27;;
32611;SDS011;19030;49.478;8.986;2023-08-06T00:04:16;16.25;;;14.80;;
32611;SDS011;19030;49.478;8.986;2023-08-06T00:06:16;15.73;;;14.32;;
32611;SDS011;19030;49.478;8.986;2023-08-06T00:08:17;17.42;;;14.68;;
32611;SDS011;19030;49.478;8.986;2023-08-06T00:10:17;15.50;;;13.88;;
32611;SDS011;19030;49.478;8.986;2023-08-06T00:12:18;14.95;;;13.65;;
32611;SDS011;19030;49.478;8.986;2023-08-06T00:14:18;14.45;;;13.25;;
32611;SDS011;19030;49.478;8.986;2023-08-06T00:16:19;14.30;;;13.10;;
32611;SDS011;19030;49.478;8.986;2023-08-06T00:18:19;15.13;;;13.73;;
32611;SDS011;19030;49.478;8.986;2023-08-06T00:20:20;14.80;;;13.38;;
32611;SDS011;19030;49.478;8.986;2023-08-06T00:22:21;15.57;;;14.18;;
32611;SDS011;19030;49.478;8.986;2023-08-06T00:24:21;14.35;;;13.15;;
32611;SDS011;19030;49.478;8.986;2023-08-06T00:26:22;14.90;;;13.60;;
32611;SDS011;19030;49.478;8.986;2023-08-06T00:28:22;15.70;;;14.40;;
32611;SDS011;19030;49.478;8.986;2023-08-06T00:30:23;15.40;;;14.00;;
32611;SDS011;19030;49.478;8.986;2023-08-06T00:32:24;14.65;;;13.35;;
32611;SDS011;19030;49.478;8.986;2023-08-06T00:34:25;15.38;;;14.07;;
32611;SDS011;19030;49.478;8.986;2023-08-06T00:36:25;13.85;;;12.65;;
32611;SDS011;19030;49.478;8.986;2023-08-06T00:38:26;14.73;;;13.23;;
32611;SDS011;19030;49.478;8.986;2023-08-06T00:40:27;17.67;;;12.65;;
32611;SDS011;19030;49.478;8.986;2023-08-06T00:42:29;13.75;;;12.55;;
32611;SDS011;19030;49.478;8.986;2023-08-06T00:44:29;14.30;;;13.10;;
32611;SDS011;19030;49.478;8.986;2023-08-06T00:46:30;14.10;;;12.77;;
32611;SDS011;19030;49.478;8.986;2023-08-06T00:48:33;13.65;;;12.25;;
32611;SDS011;19030;49.478;8.986;2023-08-06T00:50:33;17.92;;;12.23;;
32611;SDS011;19030;49.478;8.986;2023-08-06T00:52:34;12.90;;;11.38;;
32611;SDS011;19030;49.478;8.986;2023-08-06T00:54:35;13.77;;;11.85;;
32611;SDS011;19030;49.478;8.986;2023-08-06T00:56:36;12.55;;;11.35;;
32611;SDS011;19030;49.478;8.986;2023-08-06T00:58:37;13.63;;;12.23;;
32611;SDS011;19030;49.478;8.986;2023-08-06T01:00:38;13.20;;;11.90;;
32611;SDS011;19030;49.478;8.986;2023-08-06T01:02:39;13.35;;;12.25;;
32611;SDS011;19030;49.478;8.986;2023-08-06T01:04:40;12.23;;;11.13;;
32611;SDS011;19030;49.478;8.986;2023-08-06T01:09:02;14.07;;;12.88;;
32611;SDS011;19030;49.478;8.986;2023-08-06T01:15:45;15.45;;;14.00;;
32611;SDS011;19030;49.478;8.986;2023-08-06T01:17:49;15.10;;;13.70;;
32611;SDS011;19030;49.478;8.986;2023-08-06T01:19:50;14.27;;;12.77;;
32611;SDS011;19030;49.478;8.986;2023-08-06T01:21:50;14.70;;;13.40;;
32611;SDS011;19030;49.478;8.986;2023-08-06T01:23:51;16.17;;;13.70;;
32611;SDS011;19030;49.478;8.986;2023-08-06T01:26:08;15.82;;;14.40;;
32611;SDS011;19030;49.478;8.986;2023-08-06T01:30:41;14.68;;;13.27;;
32611;SDS011;19030;49.478;8.986;2023-08-06T01:32:43;14.35;;;12.77;;
32611;SDS011;19030;49.478;8.986;2023-08-06T01:34:46;15.43;;;14.05;;
32611;SDS011;19030;49.478;8.986;2023-08-06T01:36:48;16.73;;;15.23;;
32611;SDS011;19030;49.478;8.986;2023-08-06T01:38:53;16.30;;;14.73;;
32611;SDS011;19030;49.478;8.986;2023-08-06T01:40:54;16.23;;;14.85;;
32611;SDS011;19030;49.478;8.986;2023-08-06T01:42:55;16.10;;;14.77;;
32611;SDS011;19030;49.478;8.986;2023-08-06T01:44:55;16.08;;;14.70;;
32611;SDS011;19030;49.478;8.986;2023-08-06T01:46:56;17.35;;;15.75;;
32611;SDS011;19030;49.478;8.986;2023-08-06T01:48:56;16.70;;;15.30;;
32611;SDS011;19030;49.478;8.986;2023-08-06T01:50:57;16.35;;;15.05;;
32611;SDS011;19030;49.478;8.986;2023-08-06T01:52:58;16.90;;;15.07;;
32611;SDS011;19030;49.478;8.986;2023-08-06T01:54:58;17.63;;;14.85;;
32611;SDS011;19030;49.478;8.986;2023-08-06T01:56:59;16.83;;;15.10;;
32611;SDS011;19030;49.478;8.986;2023-08-06T01:58:59;16.25;;;14.80;;
32611;SDS011;19030;49.478;8.986;2023-08-06T02:01:00;16.63;;;15.13;;
32611;SDS011;19030;49.478;8.986;2023-08-06T02:03:01;16.90;;;15.40;;
32611;SDS011;19030;49.478;8.986;2023-08-06T02:05:02;16.30;;;14.88;;
32611;SDS011;19030;49.478;8.986;2023-08-06T02:07:03;16.55;;;14.90;;
32611;SDS011;19030;49.478;8.986;2023-08-06T02:09:04;16.55;;;14.90;;
32611;SDS011;19030;49.478;8.986;2023-08-06T02:11:04;16.05;;;14.48;;
32611;SDS011;19030;49.478;8.986;2023-08-06T02:13:05;16.52;;;15.02;;
32611;SDS011;19030;49.478;8.986;2023-08-06T02:15:05;16.13;;;14.73;;
32611;SDS011;19030;49.478;8.986;2023-08-06T02:17:07;14.93;;;13.60;;
32611;SDS011;19030;49.478;8.986;2023-08-06T02:19:07;15.63;;;14.32;;
32611;SDS011;19030;49.478;8.986;2023-08-06T02:21:08;17.40;;;14.50;;
32611;SDS011;19030;49.478;8.986;2023-08-06T02:23:08;16.05;;;14.63;;
32611;SDS011;19030;49.478;8.986;2023-08-06T02:25:09;15.70;;;14.30;;
32611;SDS011;19030;49.478;8.986;2023-08-06T02:27:09;18.70;;;16.73;;
32611;SDS011;19030;49.478;8.986;2023-08-06T02:29:10;15.10;;;13.73;;
32611;SDS011;19030;49.478;8.986;2023-08-06T02:31:11;16.02;;;14.52;;
32611;SDS011;19030;49.478;8.986;2023-08-06T02:33:11;15.98;;;14.27;;
32611;SDS011;19030;49.478;8.986;2023-08-06T02:35:12;16.00;;;14.45;;
32611;SDS011;19030;49.478;8.986;2023-08-06T02:37:13;15.63;;;14.13;;
32611;SDS011;19030;49.478;8.986;2023-08-06T02:39:13;15.25;;;13.95;;
32611;SDS011;19030;49.478;8.986;2023-08-06T02:41:14;15.55;;;14.05;;
32611;SDS011;19030;49.478;8.986;2023-08-06T02:43:14;15.52;;;14.02;;
32611;SDS011;19030;49.478;8.986;2023-08-06T02:45:15;16.00;;;14.65;;
32611;SDS011;19030;49.478;8.986;2023-08-06T02:47:16;16.55;;;14.90;;
32611;SDS011;19030;49.478;8.986;2023-08-06T02:49:16;16.27;;;14.77;;
32611;SDS011;19030;49.478;8.986;2023-08-06T02:51:17;16.77;;;15.10;;
32611;SDS011;19030;49.478;8.986;2023-08-06T02:53:17;16.45;;;14.73;;
32611;SDS011;19030;49.478;8.986;2023-08-06T02:55:20;16.35;;;14.95;;
32611;SDS011;19030;49.478;8.986;2023-08-06T02:57:22;25.23;;;14.40;;
32611;SDS011;19030;49.478;8.986;2023-08-06T02:59:25;16.90;;;15.15;;
32611;SDS011;19030;49.478;8.986;2023-08-06T03:01:35;16.73;;;14.77;;
32611;SDS011;19030;49.478;8.986;2023-08-06T03:03:43;16.73;;;15.10;;
32611;SDS011;19030;49.478;8.986;2023-08-06T03:05:51;16.00;;;14.38;;
32611;SDS011;19030;49.478;8.986;2023-08-06T03:07:57;16.38;;;14.75;;
32611;SDS011;19030;49.478;8.986;2023-08-06T03:10:02;16.45;;;14.95;;
32611;SDS011;19030;49.478;8.986;2023-08-06T03:12:03;17.70;;;15.90;;
32611;SDS011;19030;49.478;8.986;2023-08-06T03:14:04;16.73;;;15.23;;
32611;SDS011;19030;49.478;8.986;2023-08-06T03:16:05;16.83;;;15.07;;
32611;SDS011;19030;49.478;8.986;2023-08-06T03:18:05;15.85;;;14.43;;
32611;SDS011;19030;49.478;8.986;2023-08-06T03:20:06;15.80;;;14.40;;
32611;SDS011;19030;49.478;8.986;2023-08-06T03:22:08;22.85;;;15.57;;
32611;SDS011;19030;49.478;8.986;2023-08-06T03:24:10;17.40;;;15.90;;
32611;SDS011;19030;49.478;8.986;2023-08-06T03:26:13;17.27;;;15.77;;
32611;SDS011;19030;49.478;8.986;2023-08-06T03:28:14;16.58;;;15.05;;
32611;SDS011;19030;49.478;8.986;2023-08-06T03:30:16;15.90;;;14.38;;
32611;SDS011;19030;49.478;8.986;2023-08-06T03:32:17;16.63;;;14.95;;
32611;SDS011;19030;49.478;8.986;2023-08-06T03:34:18;15.23;;;13.73;;
32611;SDS011;19030;49.478;8.986;2023-08-06T03:36:20;15.77;;;14.18;;
32611;SDS011;19030;49.478;8.986;2023-08-06T03:38:21;15.40;;;14.00;;
32611;SDS011;19030;49.478;8.986;2023-08-06T03:40:23;15.75;;;14.25;;
32611;SDS011;19030;49.478;8.986;2023-08-06T03:42:23;15.32;;;14.02;;
32611;SDS011;19030;49.478;8.986;2023-08-06T03:44:24;15.32;;;13.85;;
32611;SDS011;19030;49.478;8.986;2023-08-06T03:46:27;14.25;;;12.88;;
32611;SDS011;19030;49.478;8.986;2023-08-06T03:48:27;14.32;;;13.13;;
32611;SDS011;19030;49.478;8.986;2023-08-06T03:50:28;14.80;;;13.50;;
32611;SDS011;19030;49.478;8.986;2023-08-06T03:52:29;15.05;;;13.57;;
32611;SDS011;19030;49.478;8.986;2023-08-06T03:54:29;18.73;;;14.73;;
32611;SDS011;19030;49.478;8.986;2023-08-06T03:56:30;15.60;;;14.00;;
32611;SDS011;19030;49.478;8.986;2023-08-06T03:58:30;15.35;;;13.95;;
32611;SDS011;19030;49.478;8.986;2023-08-06T04:00:31;15.98;;;14.25;;
32611;SDS011;19030;49.478;8.986;2023-08-06T04:02:32;14.93;;;13.43;;
32611;SDS011;19030;49.478;8.986;2023-08-06T04:04:34;15.30;;;14.00;;
32611;SDS011;19030;49.478;8.986;2023-08-06T04:06:34;15.23;;;13.88;;
32611;SDS011;19030;49.478;8.986;2023-08-06T04:08:35;15.13;;;13.70;;
32611;SDS011;19030;49.478;8.986;2023-08-06T04:10:36;16.73;;;15.10;;
32611;SDS011;19030;49.478;8.986;2023-08-06T04:12:37;15.02;;;13.57;;
32611;SDS011;19030;49.478;8.986;2023-08-06T04:14:39;16.00;;;14.35;;
32611;SDS011;19030;49.478;8.986;2023-08-06T04:16:39;15.07;;;13.50;;
32611;SDS011;19030;49.478;8.986;2023-08-06T04:18:40;13.70;;;12.50;;
32611;SDS011;19030;49.478;8.986;2023-08-06T04:20:44;14.45;;;13.15;;
32611;SDS011;19030;49.478;8.986;2023-08-06T04:22:46;15.77;;;14.30;;
32611;SDS011;19030;49.478;8.986;2023-08-06T04:24:47;16.15;;;14.52;;
32611;SDS011;19030;49.478;8.986;2023-08-06T04:26:48;14.30;;;13.10;;
32611;SDS011;19030;49.478;8.986;2023-08-06T04:28:48;15.20;;;13.48;;
32611;SDS011;19030;49.478;8.986;2023-08-06T04:30:49;14.70;;;13.13;;
32611;SDS011;19030;49.478;8.986;2023-08-06T04:32:49;13.93;;;12.73;;
32611;SDS011;19030;49.478;8.986;2023-08-06T04:34:51;14.60;;;13.13;;
32611;SDS011;19030;49.478;8.986;2023-08-06T04:36:51;13.90;;;12.52;;
32611;SDS011;19030;49.478;8.986;2023-08-06T04:38:52;14.27;;;12.90;;
32611;SDS011;19030;49.478;8.986;2023-08-06T04:40:53;13.98;;;12.68;;
32611;SDS011;19030;49.478;8.986;2023-08-06T04:42:54;14.68;;;13.25;;
32611;SDS011;19030;49.478;8.986;2023-08-06T04:44:55;14.07;;;12.77;;
32611;SDS011;19030;49.478;8.986;2023-08-06T04:46:56;14.48;;;13.07;;
32611;SDS011;19030;49.478;8.986;2023-08-06T04:48:56;15.20;;;13.80;;
32611;SDS011;19030;49.478;8.986;2023-08-06T04:50:57;14.25;;;12.98;;
32611;SDS011;19030;49.478;8.986;2023-08-06T04:52:57;15.63;;;13.25;;
32611;SDS011;19030;49.478;8.986;2023-08-06T04:54:58;14.38;;;12.90;;
32611;SDS011;19030;49.478;8.986;2023-08-06T04:56:58;13.40;;;12.20;;
32611;SDS011;19030;49.478;8.986;2023-08-06T04:58:59;14.13;;;12.52;;
32611;SDS011;19030;49.478;8.986;2023-08-06T05:01:00;14.00;;;12.55;;
32611;SDS011;19030;49.478;8.986;2023-08-06T05:03:00;14.38;;;12.98;;
32611;SDS011;19030;49.478;8.986;2023-08-06T05:05:01;14.60;;;13.20;;
32611;SDS011;19030;49.478;8.986;2023-08-06T05:07:01;13.30;;;11.98;;
32611;SDS011;19030;49.478;8.986;2023-08-06T05:09:02;13.10;;;11.90;;
32611;SDS011;19030;49.478;8.986;2023-08-06T05:11:03;13.52;;;12.18;;
32611;SDS011;19030;49.478;8.986;2023-08-06T05:13:03;12.68;;;11.57;;
32611;SDS011;19030;49.478;8.986;2023-08-06T05:15:04;12.65;;;11.40;;
32611;SDS011;19030;49.478;8.986;2023-08-06T05:17:05;12.02;;;10.82;;
32611;SDS011;19030;49.478;8.986;2023-08-06T05:19:05;14.98;;;11.75;;
32611;SDS011;19030;49.478;8.986;2023-08-06T05:21:06;12.45;;;11.25;;
32611;SDS011;19030;49.478;8.986;2023-08-06T05:23:06;12.82;;;11.57;;
32611;SDS011;19030;49.478;8.986;2023-08-06T05:25:07;14.10;;;12.90;;
32611;SDS011;19030;49.478;8.986;2023-08-06T05:27:08;10.70;;;9.20;;
32611;SDS011;19030;49.478;8.986;2023-08-06T05:29:08;12.32;;;7.78;;
32611;SDS011;19030;49.478;8.986;2023-08-06T05:31:09;8.63;;;6.43;;
32611;SDS011;19030;49.478;8.986;2023-08-06T05:33:10;6.97;;;6.15;;
32611;SDS011;19030;49.478;8.986;2023-08-06T05:35:11;9.25;;;6.10;;
32611;SDS011;19030;49.478;8.986;2023-08-06T05:37:11;7.95;;;5.38;;
32611;SDS011;19030;49.478;8.986;2023-08-06T05:39:12;8.18;;;5.53;;
32611;SDS011;19030;49.478;8.986;2023-08-06T05:41:12;8.98;;;6.22;;
32611;SDS011;19030;49.478;8.986;2023-08-06T05:43:13;8.20;;;5.78;;
32611;SDS011;19030;49.478;8.986;2023-08-06T05:45:13;9.80;;;6.18;;
32611;SDS011;19030;49.478;8.986;2023-08-06T05:47:14;9.00;;;5.95;;
32611;SDS011;19030;49.478;8.986;2023-08-06T05:49:15;6.95;;;6.25;;
32611;SDS011;19030;49.478;8.986;2023-08-06T05:51:16;10.15;;;6.28;;
32611;SDS011;19030;49.478;8.986;2023-08-06T05:53:16;9.63;;;5.95;;
32611;SDS011;19030;49.478;8.986;2023-08-06T05:55:17;10.85;;;7.00;;
32611;SDS011;19030;49.478;8.986;2023-08-06T05:57:19;8.73;;;5.50;;
32611;SDS011;19030;49.478;8.986;2023-08-06T05:59:19;10.52;;;5.70;;
32611;SDS011;19030;49.478;8.986;2023-08-06T06:01:20;11.40;;;6.70;;
32611;SDS011;19030;49.478;8.986;2023-08-06T06:03:20;6.85;;;6.00;;
32611;SDS011;19030;49.478;8.986;2023-08-06T06:05:21;8.25;;;6.63;;
32611;SDS011;19030;49.478;8.986;2023-08-06T06:07:21;8.10;;;6.32;;
32611;SDS011;19030;49.478;8.986;2023-08-06T06:09:22;9.02;;;7.63;;
32611;SDS011;19030;49.478;8.986;2023-08-06T06:11:22;7.93;;;6.63;;
32611;SDS011;19030;49.478;8.986;2023-08-06T06:13:23;7.05;;;5.93;;
32611;SDS011;19030;49.478;8.986;2023-08-06T06:15:24;7.03;;;5.72;;
32611;SDS011;19030;49.478;8.986;2023-08-06T06:17:24;8.85;;;6.03;;
32611;SDS011;19030;49.478;8.986;2023-08-06T06:19:25;7.68;;;5.40;;
32611;SDS011;19030;49.478;8.986;2023-08-06T06:21:25;6.72;;;5.80;;
32611;SDS011;19030;49.478;8.986;2023-08-06T06:23:26;5.72;;;4.80;;
32611;SDS011;19030;49.478;8.986;2023-08-06T06:25:26;6.05;;;3.92;;
32611;SDS011;19030;49.478;8.986;2023-08-06T06:27:27;6.88;;;4.60;;
32611;SDS011;19030;49.478;8.986;2023-08-06T06:29:27;5.85;;;3.92;;
32611;SDS011;19030;49.478;8.986;2023-08-06T06:31:28;6.43;;;4.53;;
32611;SDS011;19030;49.478;8.986;2023-08-06T06:33:29;9.60;;;3.88;;
32611;SDS011;19030;49.478;8.986;2023-08-06T06:35:29;11.35;;;4.30;;
32611;SDS011;19030;49.478;8.986;2023-08-06T06:37:30;5.60;;;3.72;;
32611;SDS011;19030;49.478;8.986;2023-08-06T06:39:30;8.80;;;4.00;;
32611;SDS011;19030;49.478;8.986;2023-08-06T06:41:31;4.97;;;3.20;;
32611;SDS011;19030;49.478;8.986;2023-08-06T06:43:39;7.25;;;3.88;;
32611;SDS011;19030;49.478;8.986;2023-08-06T06:45:40;8.90;;;4.07;;
32611;SDS011;19030;49.478;8.986;2023-08-06T06:47:41;6.95;;;3.58;;
32611;SDS011;19030;49.478;8.986;2023-08-06T06:49:41;9.13;;;6.10;;
32611;SDS011;19030;49.478;8.986;2023-08-06T06:51:42;6.22;;;3.50;;
32611;SDS011;19030;49.478;8.986;2023-08-06T06:53:42;7.00;;;4.40;;
32611;SDS011;19030;49.478;8.986;2023-08-06T06:55:43;5.63;;;3.67;;
32611;SDS011;19030;49.478;8.986;2023-08-06T06:57:43;6.88;;;3.25;;
32611;SDS011;19030;49.478;8.986;2023-08-06T06:59:44;7.22;;;4.45;;
32611;SDS011;19030;49.478;8.986;2023-08-06T07:01:45;5.63;;;3.70;;
32611;SDS011;19030;49.478;8.986;2023-08-06T07:03:45;5.03;;;3.40;;
32611;SDS011;19030;49.478;8.986;2023-08-06T07:05:46;4.20;;;3.80;;
32611;SDS011;19030;49.478;8.986;2023-08-06T07:07:46;7.63;;;3.80;;
32611;SDS011;19030;49.478;8.986;2023-08-06T07:09:47;6.05;;;3.70;;
32611;SDS011;19030;49.478;8.986;2023-08-06T07:11:47;5.75;;;4.82;;
32611;SDS011;19030;49.478;8.986;2023-08-06T07:13:49;3.80;;;3.30;;
32611;SDS011;19030;49.478;8.986;2023-08-06T07:15:50;5.75;;;4.10;;
32611;SDS011;19030;49.478;8.986;2023-08-06T07:17:50;3.65;;;3.35;;
32611;SDS011;19030;49.478;8.986;2023-08-06T07:19:51;6.22;;;3.90;;
32611;SDS011;19030;49.478;8.986;2023-08-06T07:21:51;4.28;;;3.00;;
32611;SDS011;19030;49.478;8.986;2023-08-06T07:23:52;4.82;;;3.40;;
32611;SDS011;19030;49.478;8.986;2023-08-06T07:25:52;4.15;;;2.90;;
32611;SDS011;19030;49.478;8.986;2023-08-06T07:27:53;4.60;;;3.17;;
32611;SDS011;19030;49.478;8.986;2023-08-06T07:29:54;5.32;;;3.10;;
32611;SDS011;19030;49.478;8.986;2023-08-06T07:31:54;5.53;;;3.28;;
32611;SDS011;19030;49.478;8.986;2023-08-06T07:33:55;5.57;;;3.25;;
32611;SDS011;19030;49.478;8.986;2023-08-06T07:35:56;6.63;;;3.50;;
32611;SDS011;19030;49.478;8.986;2023-08-06T07:37:56;6.35;;;3.70;;
32611;SDS011;19030;49.478;8.986;2023-08-06T07:39:57;3.47;;;3.08;;
32611;SDS011;19030;49.478;8.986;2023-08-06T07:41:58;4.65;;;3.08;;
32611;SDS011;19030;49.478;8.986;2023-08-06T07:43:58;3.03;;;2.72;;
32611;SDS011;19030;49.478;8.986;2023-08-06T07:45:59;4.32;;;2.92;;
32611;SDS011;19030;49.478;8.986;2023-08-06T07:48:00;4.00;;;2.58;;
32611;SDS011;19030;49.478;8.986;2023-08-06T07:50:01;4.40;;;2.90;;
32611;SDS011;19030;49.478;8.986;2023-08-06T07:52:02;4.20;;;3.20;;
32611;SDS011;19030;49.478;8.986;2023-08-06T07:54:03;3.65;;;3.17;;
32611;SDS011;19030;49.478;8.986;2023-08-06T07:56:03;4.43;;;3.40;;
32611;SDS011;19030;49.478;8.986;2023-08-06T07:58:04;5.75;;;3.30;;
32611;SDS011;19030;49.478;8.986;2023-08-06T08:00:05;4.72;;;2.80;;
32611;SDS011;19030;49.478;8.986;2023-08-06T08:02:12;2.67;;;2.40;;
32611;SDS011;19030;49.478;8.986;2023-08-06T08:04:13;2.90;;;2.60;;
32611;SDS011;19030;49.478;8.986;2023-08-06T08:06:14;2.80;;;2.50;;
32611;SDS011;19030;49.478;8.986;2023-08-06T08:08:14;4.05;;;2.60;;
32611;SDS011;19030;49.478;8.986;2023-08-06T08:10:15;3.40;;;2.58;;
32611;SDS011;19030;49.478;8.986;2023-08-06T08:12:15;5.53;;;2.60;;
32611;SDS011;19030;49.478;8.986;2023-08-06T08:14:16;2.88;;;2.35;;
32611;SDS011;19030;49.478;8.986;2023-08-06T08:16:16;3.72;;;2.47;;
32611;SDS011;19030;49.478;8.986;2023-08-06T08:18:17;4.65;;;2.50;;
32611;SDS011;19030;49.478;8.986;2023-08-06T08:20:19;3.63;;;2.60;;
32611;SDS011;19030;49.478;8.986;2023-08-06T08:22:20;2.70;;;2.40;;
32611;SDS011;19030;49.478;8.986;2023-08-06T08:24:20;2.60;;;2.40;;
32611;SDS011;19030;49.478;8.986;2023-08-06T08:26:23;3.50;;;2.55;;
32611;SDS011;19030;49.478;8.986;2023-08-06T08:28:24;3.85;;;2.85;;
32611;SDS011;19030;49.478;8.986;2023-08-06T08:30:24;3.42;;;2.50;;
32611;SDS011;19030;49.478;8.986;2023-08-06T08:32:25;2.92;;;2.42;;
32611;SDS011;19030;49.478;8.986;2023-08-06T08:34:26;4.53;;;2.50;;
32611;SDS011;19030;49.478;8.986;2023-08-06T08:36:26;2.40;;;2.10;;
32611;SDS011;19030;49.478;8.986;2023-08-06T08:38:27;3.80;;;2.15;;
32611;SDS011;19030;49.478;8.986;2023-08-06T08:40:30;4.80;;;2.20;;
32611;SDS011;19030;49.478;8.986;2023-08-06T08:42:32;5.07;;;2.20;;
32611;SDS011;19030;49.478;8.986;2023-08-06T08:44:33;2.95;;;2.28;;
32611;SDS011;19030;49.478;8.986;2023-08-06T08:46:38;2.88;;;2.10;;
32611;SDS011;19030;49.478;8.986;2023-08-06T08:48:41;2.95;;;2.50;;
32611;SDS011;19030;49.478;8.986;2023-08-06T08:50:46;6.60;;;2.38;;
32611;SDS011;19030;49.478;8.986;2023-08-06T08:52:48;4.50;;;2.40;;
32611;SDS011;19030;49.478;8.986;2023-08-06T08:54:50;3.47;;;2.30;;
32611;SDS011;19030;49.478;8.986;2023-08-06T08:56:53;2.75;;;2.40;;
32611;SDS011;19030;49.478;8.986;2023-08-06T08:58:55;4.07;;;2.40;;
32611;SDS011;19030;49.478;8.986;2023-08-06T09:00:55;2.65;;;2.22;;
32611;SDS011;19030;49.478;8.986;2023-08-06T09:02:57;2.40;;;2.20;;
32611;SDS011;19030;49.478;8.986;2023-08-06T09:04:59;3.03;;;2.20;;
32611;SDS011;19030;49.478;8.986;2023-08-06T09:07:02;2.25;;;2.05;;
32611;SDS011;19030;49.478;8.986;2023-08-06T09:09:13;2.58;;;2.28;;
32611;SDS011;19030;49.478;8.986;2023-08-06T09:11:21;3.03;;;2.75;;
32611;SDS011;19030;49.478;8.986;2023-08-06T09:13:21;2.97;;;2.40;;
32611;SDS011;19030;49.478;8.986;2023-08-06T09:15:26;2.33;;;2.10;;
32611;SDS011;19030;49.478;8.986;2023-08-06T09:17:28;2.78;;;2.40;;
32611;SDS011;19030;49.478;8.986;2023-08-06T09:19:29;5.00;;;2.42;;
32611;SDS011;19030;49.478;8.986;2023-08-06T09:21:29;3.60;;;2.30;;
32611;SDS011;19030;49.478;8.986;2023-08-06T09:23:30;2.13;;;1.65;;
32611;SDS011;19030;49.478;8.986;2023-08-06T09:25:33;2.53;;;2.30;;
32611;SDS011;19030;49.478;8.986;2023-08-06T09:27:33;2.97;;;2.67;;
32611;SDS011;19030;49.478;8.986;2023-08-06T09:29:34;2.33;;;2.13;;
32611;SDS011;19030;49.478;8.986;2023-08-06T09:31:44;3.15;;;2.30;;
32611;SDS011;19030;49.478;8.986;2023-08-06T09:33:46;3.38;;;2.70;;
32611;SDS011;19030;49.478;8.986;2023-08-06T09:35:49;2.50;;;2.30;;
32611;SDS011;19030;49.478;8.986;2023-08-06T09:37:50;3.10;;;2.40;;
32611;SDS011;19030;49.478;8.986;2023-08-06T09:39:50;5.10;;;2.95;;
32611;SDS011;19030;49.478;8.986;2023-08-06T09:41:55;2.80;;;2.60;;
32611;SDS011;19030;49.478;8.986;2023-08-06T09:43:57;6.00;;;2.85;;
32611;SDS011;19030;49.478;8.986;2023-08-06T09:45:58;2.83;;;2.50;;
32611;SDS011;19030;49.478;8.986;2023-08-06T09:48:00;6.68;;;2.50;;
32611;SDS011;19030;49.478;8.986;2023-08-06T09:50:04;4.32;;;2.35;;
32611;SDS011;19030;49.478;8.986;2023-08-06T09:52:11;2.30;;;2.10;;
32611;SDS011;19030;49.478;8.986;2023-08-06T09:54:13;2.30;;;2.10;;
32611;SDS011;19030;49.478;8.986;2023-08-06T09:56:15;4.63;;;2.25;;
32611;SDS011;19030;49.478;8.986;2023-08-06T09:58:17;2.83;;;2.30;;
32611;SDS011;19030;49.478;8.986;2023-08-06T10:00:21;2.33;;;1.60;;
32611;SDS011;19030;49.478;8.986;2023-08-06T10:02:23;3.47;;;2.00;;
32611;SDS011;19030;49.478;8.986;2023-08-06T10:04:26;2.85;;;2.30;;
32611;SDS011;19030;49.478;8.986;2023-08-06T10:06:29;3.13;;;2.25;;
32611;SDS011;19030;49.478;8.986;2023-08-06T10:08:30;2.40;;;2.10;;
32611;SDS011;19030;49.478;8.986;2023-08-06T10:10:30;2.42;;;2.20;;
32611;SDS011;19030;49.478;8.986;2023-08-06T10:12:32;2.10;;;1.90;;
32611;SDS011;19030;49.478;8.986;2023-08-06T10:14:37;2.85;;;2.42;;
32611;SDS011;19030;49.478;8.986;2023-08-06T10:16:40;2.25;;;1.50;;
32611;SDS011;19030;49.478;8.986;2023-08-06T10:18:41;2.50;;;2.30;;
32611;SDS011;19030;49.478;8.986;2023-08-06T10:20:43;2.75;;;2.40;;
32611;SDS011;19030;49.478;8.986;2023-08-06T10:22:44;2.50;;;2.30;;
32611;SDS011;19030;49.478;8.986;2023-08-06T10:24:51;2.60;;;2.40;;
32611;SDS011;19030;49.478;8.986;2023-08-06T10:26:56;2.67;;;2.45;;
32611;SDS011;19030;49.478;8.986;2023-08-06T10:28:58;2.80;;;2.60;;
32611;SDS011;19030;49.478;8.986;2023-08-06T10:30:59;2.72;;;2.40;;
32611;SDS011;19030;49.478;8.986;2023-08-06T10:33:00;2.40;;;2.20;;
32611;SDS011;19030;49.478;8.986;2023-08-06T10:35:02;3.13;;;2.85;;
32611;SDS011;19030;49.478;8.986;2023-08-06T10:37:03;3.00;;;2.70;;
32611;SDS011;19030;49.478;8.986;2023-08-06T10:39:03;3.40;;;3.10;;
32611;SDS011;19030;49.478;8.986;2023-08-06T10:41:04;2.40;;;2.20;;
32611;SDS011;19030;49.478;8.986;2023-08-06T10:43:05;3.55;;;2.60;;
32611;SDS011;19030;49.478;8.986;2023-08-06T10:45:19;2.75;;;2.55;;
32611;SDS011;19030;49.478;8.986;2023-08-06T10:47:26;4.32;;;2.65;;
32611;SDS011;19030;49.478;8.986;2023-08-06T10:49:28;2.70;;;2.50;;
32611;SDS011;19030;49.478;8.986;2023-08-06T10:51:28;3.17;;;2.80;;
32611;SDS011;19030;49.478;8.986;2023-08-06T10:53:29;4.78;;;2.95;;
32611;SDS011;19030;49.478;8.986;2023-08-06T10:55:30;2.90;;;2.70;;
32611;SDS011;19030;49.478;8.986;2023-08-06T10:57:31;3.17;;;2.70;;
32611;SDS011;19030;49.478;8.986;2023-08-06T10:59:32;3.17;;;2.70;;
32611;SDS011;19030;49.478;8.986;2023-08-06T11:01:33;2.80;;;2.53;;
32611;SDS011;19030;49.478;8.986;2023-08-06T11:03:35;3.22;;;2.70;;
32611;SDS011;19030;49.478;8.986;2023-08-06T11:05:37;2.90;;;2.60;;
32611;SDS011;19030;49.478;8.986;2023-08-06T11:07:37;3.20;;;2.90;;
32611;SDS011;19030;49.478;8.986;2023-08-06T11:09:38;3.20;;;2.90;;
32611;SDS011;19030;49.478;8.986;2023-08-06T11:11:39;3.00;;;2.50;;
32611;SDS011;19030;49.478;8.986;2023-08-06T11:13:46;2.97;;;2.70;;
32611;SDS011;19030;49.478;8.986;2023-08-06T11:15:48;5.43;;;2.90;;
32611;SDS011;19030;49.478;8.986;2023-08-06T11:17:48;2.80;;;2.60;;
32611;SDS011;19030;49.478;8.986;2023-08-06T11:19:50;7.40;;;2.60;;
32611;SDS011;19030;49.478;8.986;2023-08-06T11:21:51;2.60;;;2.40;;
32611;SDS011;19030;49.478;8.986;2023-08-06T11:23:51;2.60;;;2.40;;
32611;SDS011;19030;49.478;8.986;2023-08-06T11:25:53;3.25;;;2.58;;
32611;SDS011;19030;49.478;8.986;2023-08-06T11:27:53;3.17;;;2.50;;
32611;SDS011;19030;49.478;8.986;2023-08-06T11:29:54;2.80;;;2.60;;
32611;SDS011;19030;49.478;8.986;2023-08-06T11:32:02;2.70;;;2.50;;
32611;SDS011;19030;49.478;8.986;2023-08-06T11:34:04;2.95;;;2.70;;
32611;SDS011;19030;49.478;8.986;2023-08-06T11:38:05;2.70;;;2.50;;
32611;SDS011;19030;49.478;8.986;2023-08-06T11:40:08;2.60;;;2.40;;
32611;SDS011;19030;49.478;8.986;2023-08-06T11:42:09;2.60;;;2.40;;
32611;SDS011;19030;49.478;8.986;2023-08-06T11:44:12;2.50;;;2.30;;
32611;SDS011;19030;49.478;8.986;2023-08-06T11:46:13;3.23;;;2.50;;
32611;SDS011;19030;49.478;8.986;2023-08-06T11:48:14;2.67;;;2.47;;
32611;SDS011;19030;49.478;8.986;2023-08-06T11:50:24;2.60;;;2.40;;
32611;SDS011;19030;49.478;8.986;2023-08-06T11:52:26;3.95;;;2.30;;
32611;SDS011;19030;49.478;8.986;2023-08-06T11:54:32;2.50;;;2.30;;
32611;SDS011;19030;49.478;8.986;2023-08-06T11:56:34;2.40;;;2.20;;
32611;SDS011;19030;49.478;8.986;2023-08-06T11:58:35;2.80;;;2.40;;
32611;SDS011;19030;49.478;8.986;2023-08-06T12:00:36;3.22;;;2.40;;
32611;SDS011;19030;49.478;8.986;2023-08-06T12:02:38;4.15;;;2.33;;
32611;SDS011;19030;49.478;8.986;2023-08-06T12:05:00;3.33;;;2.50;;
32611;SDS011;19030;49.478;8.986;2023-08-06T12:07:09;2.70;;;2.45;;
32611;SDS011;19030;49.478;8.986;2023-08-06T12:09:10;2.83;;;2.30;;
32611;SDS011;19030;49.478;8.986;2023-08-06T12:11:10;3.05;;;2.38;;
32611;SDS011;19030;49.478;8.986;2023-08-06T12:13:11;2.60;;;2.15;;